createdAt,value
2023-08-12T00:00:33.380Z,5.22
2023-08-12T00:03:20.391Z,5.28
2023-08-12T00:05:47.578Z,5.35
2023-08-12T00:08:14.467Z,5.07
2023-08-12T00:10:41.745Z,5.28
2023-08-12T00:13:08.597Z,5.20
2023-08-12T00:15:36.007Z,5.32
2023-08-12T00:18:05.615Z,5.43
2023-08-12T00:20:32.866Z,5.25
2023-08-12T00:22:59.722Z,5.50
2023-08-12T00:25:27.037Z,5.28
2023-08-12T00:27:54.095Z,5.18
2023-08-12T00:30:21.447Z,5.60
2023-08-12T00:32:48.384Z,5.28
2023-08-12T00:35:15.864Z,4.45
2023-08-12T00:37:42.729Z,4.82
2023-08-12T00:40:10.699Z,4.80
2023-08-12T00:42:37.581Z,4.55
2023-08-12T00:45:09.862Z,4.85
2023-08-12T00:47:37.237Z,5.00
2023-08-12T00:50:04.762Z,5.03
2023-08-12T00:52:31.567Z,4.60
2023-08-12T00:54:58.758Z,4.78
2023-08-12T00:57:25.613Z,5.10
2023-08-12T00:59:53.110Z,5.07
2023-08-12T01:02:20.257Z,4.80
2023-08-12T01:04:47.429Z,4.88
2023-08-12T01:07:14.512Z,5.18
2023-08-12T01:09:41.889Z,5.53
2023-08-12T01:12:22.240Z,5.38
2023-08-12T01:15:09.286Z,5.82
2023-08-12T01:17:39.821Z,5.00
2023-08-12T01:20:13.895Z,5.20
2023-08-12T01:22:42.192Z,5.30
2023-08-12T01:25:10.347Z,5.78
2023-08-12T01:27:37.712Z,4.85
2023-08-12T01:30:07.204Z,5.30
2023-08-12T01:32:57.121Z,5.50
2023-08-12T01:35:30.206Z,5.22
2023-08-12T01:37:59.673Z,5.13
2023-08-12T01:40:29.363Z,5.47
2023-08-12T01:42:56.451Z,5.57
2023-08-12T01:45:23.755Z,5.60
2023-08-12T01:47:52.446Z,5.53
2023-08-12T01:50:20.482Z,4.97
2023-08-12T01:52:47.506Z,5.13
2023-08-12T01:55:14.619Z,4.90
2023-08-12T01:57:41.424Z,5.07
2023-08-12T02:00:09.590Z,5.03
2023-08-12T02:02:36.862Z,4.53
2023-08-12T02:05:04.312Z,5.22
2023-08-12T02:07:32.533Z,5.60
2023-08-12T02:09:59.678Z,5.38
2023-08-12T02:12:26.485Z,5.22
2023-08-12T02:14:53.630Z,4.97
2023-08-12T02:17:20.408Z,5.65
2023-08-12T02:19:47.513Z,5.43
2023-08-12T02:22:14.474Z,6.50
2023-08-12T02:24:41.599Z,5.47
2023-08-12T02:27:08.489Z,5.82
2023-08-12T02:29:35.641Z,5.70
2023-08-12T02:32:02.561Z,5.43
2023-08-12T02:34:29.630Z,5.65
2023-08-12T02:36:56.478Z,6.20
2023-08-12T02:39:23.674Z,5.68
2023-08-12T02:41:50.388Z,5.80
2023-08-12T02:44:18.448Z,7.05
2023-08-12T02:46:45.297Z,6.97
2023-08-12T02:49:12.316Z,6.55
2023-08-12T02:51:39.175Z,6.30
2023-08-12T02:54:06.536Z,6.68
2023-08-12T02:56:33.248Z,5.47
2023-08-12T02:59:00.570Z,5.75
2023-08-12T03:01:28.738Z,5.80
2023-08-12T03:03:55.876Z,5.47
2023-08-12T03:06:22.881Z,6.22
2023-08-12T03:08:50.138Z,5.82
2023-08-12T03:11:17.878Z,5.85
2023-08-12T03:13:45.275Z,5.63
2023-08-12T03:16:16.248Z,5.65
2023-08-12T03:18:43.430Z,5.80
2023-08-12T03:21:10.641Z,5.65
2023-08-12T03:23:38.702Z,6.22
2023-08-12T03:26:05.522Z,5.93
2023-08-12T03:28:32.819Z,6.32
2023-08-12T03:30:59.856Z,6.50
2023-08-12T03:33:27.175Z,5.70
2023-08-12T03:35:54.118Z,6.68
2023-08-12T03:38:21.161Z,6.90
2023-08-12T03:40:48.078Z,6.63
2023-08-12T03:43:15.257Z,7.28
2023-08-12T03:45:43.344Z,6.95
2023-08-12T03:48:11.111Z,6.05
2023-08-12T03:50:38.947Z,6.93
2023-08-12T03:53:06.603Z,6.38
2023-08-12T03:55:34.647Z,6.22
2023-08-12T03:58:02.147Z,6.65
2023-08-12T04:00:29.661Z,6.90
2023-08-12T04:02:57.003Z,7.05
2023-08-12T04:05:24.156Z,7.03
2023-08-12T04:07:51.254Z,7.68
2023-08-12T04:10:18.165Z,6.85
2023-08-12T04:12:45.926Z,7.60
2023-08-12T04:15:12.788Z,6.95
2023-08-12T04:17:42.408Z,6.65
2023-08-12T04:20:10.022Z,6.05
2023-08-12T04:22:37.231Z,6.47
2023-08-12T04:25:04.424Z,6.80
2023-08-12T04:27:31.767Z,7.13
2023-08-12T04:29:58.907Z,7.10
2023-08-12T04:32:26.074Z,7.35
2023-08-12T04:34:52.956Z,7.10
2023-08-12T04:37:20.173Z,6.78
2023-08-12T04:39:47.150Z,7.45
2023-08-12T04:42:14.256Z,7.40
2023-08-12T04:44:41.177Z,7.50
2023-08-12T04:47:08.345Z,6.90
2023-08-12T04:49:35.167Z,7.38
2023-08-12T04:52:02.747Z,7.15
2023-08-12T04:54:29.625Z,7.70
2023-08-12T04:56:57.526Z,6.68
2023-08-12T04:59:24.377Z,6.93
2023-08-12T05:02:03.520Z,7.38
2023-08-12T05:04:31.923Z,6.85
2023-08-12T05:06:59.168Z,7.35
2023-08-12T05:09:26.157Z,7.45
2023-08-12T05:11:53.335Z,7.50
2023-08-12T05:14:20.203Z,7.25
2023-08-12T05:16:47.505Z,7.13
2023-08-12T05:19:14.420Z,7.57
2023-08-12T05:21:41.987Z,7.43
2023-08-12T05:24:09.163Z,7.85
2023-08-12T05:26:36.266Z,8.57
2023-08-12T05:29:03.151Z,8.32
2023-08-12T05:31:30.664Z,9.52
2023-08-12T05:33:57.817Z,9.80
2023-08-12T05:36:25.164Z,10.40
2023-08-12T05:38:52.058Z,10.27
2023-08-12T05:41:19.462Z,11.20
2023-08-12T05:43:46.249Z,12.05
2023-08-12T05:46:13.554Z,11.85
2023-08-12T05:48:40.526Z,12.18
2023-08-12T05:51:07.827Z,12.57
2023-08-12T05:53:34.577Z,11.93
2023-08-12T05:56:01.923Z,14.45
2023-08-12T05:58:29.085Z,14.63
2023-08-12T06:00:56.205Z,14.48
2023-08-12T06:03:23.048Z,14.18
2023-08-12T06:05:50.318Z,15.02
2023-08-12T06:08:17.251Z,14.60
2023-08-12T06:10:44.804Z,15.15
2023-08-12T06:13:11.628Z,14.88
2023-08-12T06:15:38.946Z,15.32
2023-08-12T06:18:06.224Z,15.52
2023-08-12T06:20:33.520Z,14.98
2023-08-12T06:23:00.359Z,15.15
2023-08-12T06:25:27.830Z,13.93
2023-08-12T06:27:54.711Z,15.18
2023-08-12T06:30:21.838Z,14.00
2023-08-12T06:32:48.841Z,14.73
2023-08-12T06:35:16.024Z,14.95
2023-08-12T06:37:42.920Z,14.07
2023-08-12T06:40:10.356Z,13.02
2023-08-12T06:42:37.472Z,10.63
2023-08-12T06:45:05.450Z,9.73
2023-08-12T06:47:32.663Z,9.30
2023-08-12T06:50:00.021Z,8.65
2023-08-12T06:52:27.047Z,9.05
2023-08-12T06:54:54.350Z,7.88
2023-08-12T06:57:21.209Z,7.70
2023-08-12T06:59:48.309Z,8.20
2023-08-12T07:02:15.235Z,7.70
2023-08-12T07:04:42.523Z,8.73
2023-08-12T07:07:09.385Z,7.70
2023-08-12T07:09:36.559Z,7.47
2023-08-12T07:12:04.136Z,7.88
2023-08-12T07:14:31.231Z,7.22
2023-08-12T07:16:58.123Z,7.10
2023-08-12T07:19:25.241Z,8.25
2023-08-12T07:21:52.309Z,7.50
2023-08-12T07:24:19.608Z,8.25
2023-08-12T07:26:46.453Z,7.55
2023-08-12T07:29:13.859Z,7.05
2023-08-12T07:31:40.811Z,7.47
2023-08-12T07:34:08.121Z,7.80
2023-08-12T07:36:35.106Z,6.30
2023-08-12T07:39:02.268Z,6.90
2023-08-12T07:41:29.456Z,6.47
2023-08-12T07:43:56.673Z,6.38
2023-08-12T07:46:23.575Z,6.40
2023-08-12T07:48:51.020Z,6.00
2023-08-12T07:51:17.865Z,6.03
2023-08-12T07:53:45.365Z,6.05
2023-08-12T07:56:12.300Z,5.15
2023-08-12T07:58:39.572Z,5.05
2023-08-12T08:01:07.473Z,6.68
2023-08-12T08:03:34.606Z,5.43
2023-08-12T08:06:01.470Z,6.13
2023-08-12T08:08:28.606Z,5.65
2023-08-12T08:10:55.916Z,5.57
2023-08-12T08:13:23.055Z,5.40
2023-08-12T08:15:49.940Z,5.10
2023-08-12T08:18:17.066Z,5.47
2023-08-12T08:20:45.998Z,5.25
2023-08-12T08:23:13.971Z,6.07
2023-08-12T08:25:40.953Z,5.32
2023-08-12T08:28:08.116Z,4.93
2023-08-12T08:30:35.214Z,6.35
2023-08-12T08:33:02.437Z,5.40
2023-08-12T08:35:29.524Z,4.95
2023-08-12T08:37:56.702Z,5.60
2023-08-12T08:40:24.417Z,5.22
2023-08-12T08:42:56.396Z,5.35
2023-08-12T08:45:26.516Z,5.60
2023-08-12T08:47:54.139Z,6.20
2023-08-12T08:50:22.002Z,5.57
2023-08-12T08:52:51.086Z,5.13
2023-08-12T08:55:19.116Z,5.25
2023-08-12T08:57:48.456Z,4.80
2023-08-12T09:00:18.101Z,4.53
2023-08-12T09:02:50.622Z,5.05
2023-08-12T09:05:18.803Z,4.88
2023-08-12T09:07:46.880Z,4.13
2023-08-12T09:10:15.734Z,3.70
2023-08-12T09:12:44.663Z,3.90
2023-08-12T09:15:11.744Z,3.38
2023-08-12T09:17:39.798Z,3.53
2023-08-12T09:20:13.351Z,3.33
2023-08-12T09:22:44.492Z,3.83
2023-08-12T09:27:39.852Z,3.55
2023-08-12T09:30:07.938Z,3.22
2023-08-12T09:32:39.803Z,3.80
2023-08-12T09:35:07.534Z,3.67
2023-08-12T09:37:34.739Z,3.80
2023-08-12T09:40:02.087Z,3.70
2023-08-12T09:42:29.643Z,3.60
2023-08-12T09:44:58.344Z,3.35
2023-08-12T09:47:28.440Z,3.92
2023-08-12T09:49:56.237Z,3.88
2023-08-12T09:52:23.671Z,3.47
2023-08-12T09:54:55.129Z,3.30
2023-08-12T09:57:27.186Z,3.30
2023-08-12T09:59:55.025Z,4.07
2023-08-12T10:02:22.720Z,3.78
2023-08-12T10:04:52.717Z,3.70
2023-08-12T10:07:21.681Z,4.00
2023-08-12T10:09:48.866Z,4.07
2023-08-12T10:12:19.343Z,3.97
2023-08-12T10:14:48.498Z,3.78
2023-08-12T10:17:23.831Z,4.32
2023-08-12T10:20:05.768Z,3.35
2023-08-12T10:22:35.687Z,3.55
2023-08-12T10:25:04.679Z,3.97
2023-08-12T10:27:32.334Z,3.63
2023-08-12T10:29:59.661Z,3.85
2023-08-12T10:32:28.264Z,3.60
2023-08-12T10:34:59.465Z,3.88
2023-08-12T10:37:27.237Z,3.60
2023-08-12T10:39:55.193Z,3.97
2023-08-12T10:42:40.828Z,3.90
2023-08-12T10:45:07.910Z,4.25
2023-08-12T10:47:39.490Z,3.78
2023-08-12T10:50:07.370Z,4.10
2023-08-12T10:52:35.591Z,3.60
2023-08-12T10:55:25.294Z,3.70
2023-08-12T10:57:56.670Z,4.25
2023-08-12T11:00:26.274Z,3.85
2023-08-12T11:02:55.715Z,3.80
2023-08-12T11:05:24.015Z,3.90
2023-08-12T11:08:03.036Z,3.70
2023-08-12T11:10:36.712Z,3.88
2023-08-12T11:13:04.961Z,4.10
2023-08-12T11:15:44.196Z,3.72
2023-08-12T11:18:17.505Z,3.65
2023-08-12T11:20:45.202Z,3.35
2023-08-12T11:23:12.808Z,3.42
2023-08-12T11:25:41.472Z,3.70
2023-08-12T11:28:09.591Z,3.65
2023-08-12T11:30:36.636Z,3.55
2023-08-12T11:33:04.494Z,3.45
2023-08-12T11:35:31.504Z,3.95
2023-08-12T11:37:59.629Z,3.20
2023-08-12T11:40:29.177Z,3.10
2023-08-12T11:42:56.757Z,3.03
2023-08-12T11:45:25.966Z,3.13
2023-08-12T11:47:57.024Z,2.85
2023-08-12T11:50:26.558Z,3.58
2023-08-12T11:52:56.365Z,3.50
2023-08-12T11:55:23.488Z,3.40
2023-08-12T11:57:52.281Z,3.55
2023-08-12T12:00:20.458Z,3.10
2023-08-12T12:02:56.118Z,3.50
2023-08-12T12:05:33.089Z,3.90
2023-08-12T12:08:01.043Z,3.22
2023-08-12T12:10:35.052Z,3.45
2023-08-12T12:13:05.276Z,3.40
2023-08-12T12:15:33.587Z,3.20
2023-08-12T12:18:00.852Z,3.08
2023-08-12T12:20:30.599Z,3.60
2023-08-12T12:25:25.027Z,3.20
2023-08-12T12:27:54.518Z,3.55
2023-08-12T12:30:21.552Z,3.40
2023-08-12T12:32:48.862Z,3.20
2023-08-12T12:35:15.790Z,3.03
2023-08-12T12:37:43.836Z,3.33
2023-08-12T12:40:11.513Z,3.50
2023-08-12T12:42:39.761Z,3.50
2023-08-12T12:45:07.231Z,3.47
2023-08-12T12:47:34.372Z,2.92
2023-08-12T12:50:01.260Z,3.10
2023-08-12T12:52:28.391Z,3.03
2023-08-12T12:54:55.204Z,3.40
2023-08-12T12:57:22.381Z,3.35
2023-08-12T12:59:49.707Z,4.00
2023-08-12T13:02:17.550Z,4.07
2023-08-12T13:04:45.755Z,3.20
2023-08-12T13:07:12.939Z,3.17
2023-08-12T13:09:41.847Z,3.28
2023-08-12T13:12:09.412Z,3.13
2023-08-12T13:14:36.277Z,3.47
2023-08-12T13:17:04.003Z,3.13
2023-08-12T13:19:30.774Z,3.20
2023-08-12T13:21:58.036Z,3.42
2023-08-12T13:24:24.853Z,3.33
2023-08-12T13:26:53.837Z,3.28
2023-08-12T13:29:20.910Z,3.03
2023-08-12T13:31:48.260Z,3.53
2023-08-12T13:34:15.903Z,3.55
2023-08-12T13:36:43.165Z,3.28
2023-08-12T13:39:10.154Z,3.58
2023-08-12T13:41:37.517Z,3.60
2023-08-12T13:44:04.805Z,3.72
2023-08-12T13:46:31.825Z,3.40
2023-08-12T13:48:58.770Z,3.22
2023-08-12T13:51:26.073Z,3.63
2023-08-12T13:53:52.824Z,3.40
2023-08-12T13:56:21.775Z,3.40
2023-08-12T13:58:48.691Z,3.03
2023-08-12T14:01:15.931Z,3.15
2023-08-12T14:03:42.857Z,3.10
2023-08-12T14:06:10.544Z,3.50
2023-08-12T14:08:37.486Z,3.00
2023-08-12T14:11:05.009Z,3.05
2023-08-12T14:13:34.883Z,3.00
2023-08-12T14:16:02.076Z,3.35
2023-08-12T14:18:29.045Z,3.08
2023-08-12T14:20:56.421Z,3.50
2023-08-12T14:23:24.260Z,3.15
2023-08-12T14:25:51.545Z,3.45
2023-08-12T14:28:18.502Z,3.10
2023-08-12T14:30:45.723Z,3.55
2023-08-12T14:33:12.765Z,3.28
2023-08-12T14:35:39.954Z,3.22
2023-08-12T14:38:06.998Z,3.35
2023-08-12T14:40:35.539Z,3.65
2023-08-12T14:43:02.518Z,3.58
2023-08-12T14:45:30.239Z,2.95
2023-08-12T14:47:57.398Z,3.08
2023-08-12T14:50:25.112Z,3.05
2023-08-12T14:52:52.054Z,3.30
2023-08-12T14:55:19.177Z,3.10
2023-08-12T14:57:46.037Z,3.28
2023-08-12T15:00:14.082Z,3.00
2023-08-12T15:02:41.070Z,3.33
2023-08-12T15:05:08.745Z,3.03
2023-08-12T15:07:35.660Z,3.35
2023-08-12T15:10:03.009Z,2.97
2023-08-12T15:12:30.026Z,3.00
2023-08-12T15:14:58.093Z,3.10
2023-08-12T15:17:25.004Z,3.10
2023-08-12T15:19:52.116Z,3.10
2023-08-12T15:22:19.002Z,3.00
2023-08-12T15:24:46.813Z,2.80
2023-08-12T15:27:13.940Z,3.13
2023-08-12T15:29:41.397Z,3.20
2023-08-12T15:32:08.238Z,4.07
2023-08-12T15:34:35.456Z,3.53
2023-08-12T15:37:02.354Z,3.70
2023-08-12T15:39:29.578Z,3.60
2023-08-12T15:41:56.620Z,3.63
2023-08-12T15:44:23.925Z,3.10
2023-08-12T15:46:50.859Z,3.20
2023-08-12T15:49:18.184Z,3.20
2023-08-12T15:51:45.133Z,3.00
2023-08-12T15:54:12.397Z,3.20
2023-08-12T15:56:39.439Z,3.35
2023-08-12T15:59:07.647Z,3.10
2023-08-12T16:01:35.043Z,3.25
2023-08-12T16:04:02.468Z,3.08
2023-08-12T16:06:29.776Z,3.08
2023-08-12T16:09:16.674Z,3.33
2023-08-12T16:11:44.275Z,2.90
2023-08-12T16:14:11.369Z,3.60
2023-08-12T16:16:38.397Z,3.05
2023-08-12T16:19:05.991Z,3.17
2023-08-12T16:21:33.029Z,3.33
2023-08-12T16:24:00.216Z,3.13
2023-08-12T16:26:27.976Z,3.58
2023-08-12T16:28:55.782Z,3.40
2023-08-12T16:31:22.660Z,3.38
2023-08-12T16:33:50.249Z,3.60
2023-08-12T16:36:17.332Z,3.17
2023-08-12T16:38:44.565Z,3.13
2023-08-12T16:41:11.512Z,3.28
2023-08-12T16:43:38.622Z,3.42
2023-08-12T16:46:05.420Z,3.65
2023-08-12T16:48:32.623Z,3.63
2023-08-12T16:50:59.597Z,3.63
2023-08-12T16:53:26.807Z,3.72
2023-08-12T16:55:55.224Z,4.78
2023-08-12T16:58:22.477Z,3.45
2023-08-12T17:00:49.668Z,3.50
2023-08-12T17:03:17.005Z,3.88
2023-08-12T17:05:43.956Z,3.92
2023-08-12T17:08:11.366Z,3.40
2023-08-12T17:10:40.613Z,4.13
2023-08-12T17:13:08.399Z,4.53
2023-08-12T17:15:35.661Z,3.92
2023-08-12T17:18:03.857Z,4.10
2023-08-12T17:20:30.972Z,6.97
2023-08-12T17:22:58.175Z,5.28
2023-08-12T17:25:25.089Z,5.85
2023-08-12T17:27:52.560Z,3.97
2023-08-12T17:30:19.798Z,4.20
2023-08-12T17:32:47.071Z,3.45
2023-08-12T17:35:14.180Z,3.65
2023-08-12T17:37:41.937Z,3.65
2023-08-12T17:40:11.747Z,3.40
2023-08-12T17:42:39.211Z,3.35
2023-08-12T17:45:07.006Z,3.22
2023-08-12T17:47:34.465Z,3.45
2023-08-12T17:50:01.406Z,3.92
2023-08-12T17:52:28.535Z,3.75
2023-08-12T17:54:55.363Z,3.63
2023-08-12T17:57:22.516Z,4.32
2023-08-12T17:59:49.478Z,7.13
2023-08-12T18:02:16.890Z,8.88
2023-08-12T18:04:43.825Z,6.07
2023-08-12T18:07:11.700Z,7.10
2023-08-12T18:09:38.785Z,8.23
2023-08-12T18:12:06.457Z,6.95
2023-08-12T18:14:33.333Z,7.03
2023-08-12T18:17:00.734Z,7.15
2023-08-12T18:19:27.870Z,8.45
2023-08-12T18:21:54.899Z,7.85
2023-08-12T18:24:22.061Z,8.30
2023-08-12T18:26:49.310Z,8.75
2023-08-12T18:29:16.249Z,12.95
2023-08-12T18:31:43.597Z,12.50
2023-08-12T18:34:10.438Z,12.43
2023-08-12T18:36:37.500Z,7.35
2023-08-12T18:39:04.387Z,7.57
2023-08-12T18:41:31.443Z,6.82
2023-08-12T18:43:58.323Z,8.15
2023-08-12T18:46:25.449Z,8.23
2023-08-12T18:48:52.376Z,9.40
2023-08-12T18:51:21.165Z,7.82
2023-08-12T18:53:48.012Z,9.35
2023-08-12T18:56:15.136Z,5.68
2023-08-12T18:58:43.177Z,4.40
2023-08-12T19:01:10.439Z,4.75
2023-08-12T19:03:37.519Z,4.75
2023-08-12T19:06:05.212Z,5.18
2023-08-12T19:08:32.502Z,5.75
2023-08-12T19:10:59.925Z,12.18
2023-08-12T19:13:27.674Z,9.80
2023-08-12T19:15:56.658Z,8.60
2023-08-12T19:18:24.346Z,9.77
2023-08-12T19:20:52.209Z,10.18
2023-08-12T19:23:20.398Z,8.45
2023-08-12T19:25:47.937Z,9.85
2023-08-12T19:28:15.021Z,10.07
2023-08-12T19:30:42.830Z,12.00
2023-08-12T19:33:09.841Z,7.05
2023-08-12T19:35:37.255Z,5.90
2023-08-12T19:38:12.178Z,6.20
2023-08-12T19:40:39.661Z,6.28
2023-08-12T19:43:06.661Z,4.60
2023-08-12T19:45:34.275Z,5.20
2023-08-12T19:48:01.097Z,5.25
2023-08-12T19:50:28.825Z,4.55
2023-08-12T19:52:55.601Z,5.68
2023-08-12T19:55:22.775Z,5.00
2023-08-12T19:57:49.579Z,5.28
2023-08-12T20:00:16.972Z,5.70
2023-08-12T20:02:44.357Z,5.40
2023-08-12T20:05:16.292Z,5.93
2023-08-12T20:07:48.356Z,5.03
2023-08-12T20:10:17.254Z,5.50
2023-08-12T20:12:44.423Z,5.00
2023-08-12T20:15:12.670Z,5.80
2023-08-12T20:17:41.511Z,5.70
2023-08-12T20:20:18.808Z,6.35
2023-08-12T20:22:55.054Z,6.28
2023-08-12T20:25:31.067Z,6.47
2023-08-12T20:27:59.692Z,7.05
2023-08-12T20:30:27.349Z,7.68
2023-08-12T20:32:55.719Z,6.50
2023-08-12T20:35:23.281Z,6.57
2023-08-12T20:37:51.191Z,6.35
2023-08-12T20:40:19.573Z,6.68
2023-08-12T20:42:47.207Z,7.63
2023-08-12T20:45:15.603Z,8.05
2023-08-12T20:47:43.089Z,8.95
2023-08-12T20:50:10.599Z,8.93
2023-08-12T20:52:37.364Z,8.45
2023-08-12T20:55:04.973Z,8.43
2023-08-12T20:57:32.859Z,7.60
2023-08-12T21:00:02.611Z,8.50
2023-08-12T21:02:30.618Z,7.57
2023-08-12T21:04:58.210Z,8.23
2023-08-12T21:07:25.128Z,7.68
2023-08-12T21:09:52.330Z,7.53
2023-08-12T21:12:19.121Z,6.90
2023-08-12T21:14:46.291Z,7.55
2023-08-12T21:17:13.190Z,7.32
2023-08-12T21:19:40.234Z,6.93
2023-08-12T21:22:07.122Z,7.18
2023-08-12T21:24:34.477Z,7.85
2023-08-12T21:27:01.424Z,6.85
2023-08-12T21:29:28.726Z,7.90
2023-08-12T21:31:55.728Z,7.10
2023-08-12T21:34:23.052Z,7.05
2023-08-12T21:36:50.037Z,7.43
2023-08-12T21:39:17.134Z,7.38
2023-08-12T21:41:43.999Z,7.75
2023-08-12T21:44:11.243Z,7.32
2023-08-12T21:46:38.331Z,6.72
2023-08-12T21:49:06.125Z,7.25
2023-08-12T21:51:33.301Z,7.53
2023-08-12T21:54:00.604Z,7.43
2023-08-12T21:56:27.534Z,7.53
2023-08-12T21:58:55.526Z,7.88
2023-08-12T22:01:23.322Z,7.25
2023-08-12T22:03:50.435Z,6.90
2023-08-12T22:06:17.231Z,7.57
2023-08-12T22:08:44.298Z,7.05
2023-08-12T22:11:11.196Z,7.35
2023-08-12T22:13:38.320Z,7.43
2023-08-12T22:16:05.240Z,7.03
2023-08-12T22:18:32.328Z,8.23
2023-08-12T22:20:59.889Z,7.47
2023-08-12T22:23:27.124Z,7.90
2023-08-12T22:25:54.128Z,7.68
2023-08-12T22:28:21.344Z,8.32
2023-08-12T22:30:49.207Z,7.55
2023-08-12T22:33:16.826Z,8.50
2023-08-12T22:35:43.848Z,7.85
2023-08-12T22:38:11.297Z,7.97
2023-08-12T22:40:38.435Z,8.15
2023-08-12T22:43:05.785Z,7.55
2023-08-12T22:45:35.785Z,7.85
2023-08-12T22:48:03.025Z,7.72
2023-08-12T22:50:29.981Z,8.05
2023-08-12T22:52:57.094Z,7.90
2023-08-12T22:55:24.102Z,8.25
2023-08-12T22:57:51.230Z,8.52
2023-08-12T23:00:18.350Z,8.07
2023-08-12T23:02:47.386Z,7.93
2023-08-12T23:05:14.560Z,8.15
2023-08-12T23:07:41.708Z,8.07
2023-08-12T23:10:09.741Z,8.35
2023-08-12T23:12:37.653Z,7.93
2023-08-12T23:15:05.098Z,8.20
2023-08-12T23:17:32.274Z,7.90
2023-08-12T23:19:59.044Z,8.32
2023-08-12T23:22:26.299Z,8.20
2023-08-12T23:24:53.195Z,7.93
2023-08-12T23:27:20.370Z,8.27
2023-08-12T23:29:47.199Z,8.77
2023-08-12T23:32:14.677Z,8.65
2023-08-12T23:34:41.805Z,9.50
2023-08-12T23:37:08.939Z,8.88
2023-08-12T23:39:35.731Z,8.88
2023-08-12T23:42:02.984Z,9.38
2023-08-12T23:44:29.784Z,8.93
2023-08-12T23:46:56.937Z,9.73
2023-08-12T23:49:24.030Z,9.10
2023-08-12T23:51:51.248Z,9.52
2023-08-12T23:54:18.277Z,9.65
2023-08-12T23:56:45.427Z,9.98
2023-08-12T23:59:12.498Z,9.25
